Time;durP1;ratioP1;P1;durP2;ratioP2;P2;SDS_P1;SDS_P2;PMS_P1;PMS_P2;Temp;Humidity;BMP_temperature;BMP_pressure;BME280_temperature;BME280_humidity;BME280_pressure;Samples;Min_cycle;Max_cycle;Signal;HPM_P1;HPM_P2
2023/09/17 00:00:11;;;;;;;;;;;;;;;20.65;63.94;99506.16;10204876;28;916;-74
2023/09/17 00:05:07;;;;;;;;;;;;;;;20.65;63.79;99508.81;10205399;28;1886;-74
2023/09/17 00:10:03;;;;;;;;;;;;;;;20.65;63.64;99511.47;10205052;28;850;-74
2023/09/17 00:14:59;;;;;;;;;;;;;;;20.64;63.70;99507.09;10205277;28;800;-74
2023/09/17 00:19:54;;;;;;;;;;;;;;;20.65;63.54;99514.09;10204813;28;924;-74
2023/09/17 00:24:50;;;;;;;;;;;;;;;20.64;63.69;99501.78;10204928;28;1890;-74
2023/09/17 00:29:46;;;;;;;;;;;;;;;20.64;63.53;99500.94;10203298;28;862;-74
2023/09/17 00:34:42;;;;;;;;;;;;;;;20.65;63.71;99502.66;10204849;28;890;-74
2023/09/17 00:39:38;;;;;;;;;;;;;;;20.64;63.52;99495.66;10205291;28;1125;-74
2023/09/17 00:44:34;;;;;;;;;;;;;;;20.64;63.68;99503.59;10205243;28;1910;-74
2023/09/17 00:49:30;;;;;;;;;;;;;;;20.64;63.71;99496.50;10203957;28;1003;-74
2023/09/17 00:54:26;;;;;;;;;;;;;;;20.65;63.54;99487.63;10204730;28;1011;-74
2023/09/17 00:59:21;;;;;;;;;;;;;;;20.64;63.56;99483.25;10203802;28;923;-74
2023/09/17 01:04:17;;;;;;;;;;;;;;;20.64;63.50;99485.06;10203666;28;1890;-74
2023/09/17 01:09:13;;;;;;;;;;;;;;;20.64;63.47;99479.75;10204221;28;826;-74
2023/09/17 01:14:12;;;;;;;;;;;;;;;20.64;63.58;99475.31;10203525;28;830;-74
2023/09/17 01:19:08;;;;;;;;;;;;;;;20.64;63.46;99474.47;10203274;28;907;-74
2023/09/17 01:24:05;;;;;;;;;;;;;;;20.64;63.65;99471.81;10203267;28;1895;-74
2023/09/17 01:29:04;;;;;;;;;;;;;;;20.63;63.54;99468.31;10202201;28;877;-74
2023/09/17 01:34:00;;;;;;;;;;;;;;;20.63;63.52;99463.03;10203103;28;1138;-74
2023/09/17 01:38:57;;;;;;;;;;;;;;;20.63;63.53;99462.16;10207413;28;1316;-74
2023/09/17 01:43:53;;;;;;;;;;;;;;;20.63;63.37;99468.31;10210962;28;1910;-74
2023/09/17 01:48:49;;;;;;;;;;;;;;;20.63;63.60;99456.88;10210933;28;819;-74
2023/09/17 01:53:45;;;;;;;;;;;;;;;20.62;63.37;99458.69;10210593;28;804;-74
2023/09/17 01:58:41;;;;;;;;;;;;;;;20.62;63.39;99450.72;10210068;28;870;-74
2023/09/17 02:03:37;;;;;;;;;;;;;;;20.63;63.57;99455.06;10210342;28;803;-74
2023/09/17 02:08:34;;;;;;;;;;;;;;;20.63;63.40;99441.00;10191974;28;1899;-74
2023/09/17 02:13:30;;;;;;;;;;;;;;;20.62;63.51;99437.50;10209543;28;1613;-74
2023/09/17 02:18:26;;;;;;;;;;;;;;;20.62;63.57;99442.78;10209297;28;926;-74
2023/09/17 02:23:22;;;;;;;;;;;;;;;20.61;63.55;99438.41;10208911;28;895;-74
2023/09/17 02:28:18;;;;;;;;;;;;;;;20.61;63.32;99441.06;10209325;28;1957;-74
2023/09/17 02:33:14;;;;;;;;;;;;;;;20.62;63.38;99431.31;10210119;28;908;-74
2023/09/17 02:38:10;;;;;;;;;;;;;;;20.62;63.39;99424.25;10208301;28;1284;-74
2023/09/17 02:43:06;;;;;;;;;;;;;;;20.62;63.41;99439.25;10208208;28;953;-74
2023/09/17 02:48:01;;;;;;;;;;;;;;;20.61;63.47;99453.47;10207227;28;1911;-74
2023/09/17 02:52:58;;;;;;;;;;;;;;;20.60;63.53;99443.81;10207448;28;871;-74
2023/09/17 02:57:54;;;;;;;;;;;;;;;20.60;63.29;99451.78;10207659;28;863;-74
2023/09/17 03:02:54;;;;;;;;;;;;;;;20.59;63.28;99440.28;10207443;28;1673;-74
2023/09/17 03:07:50;;;;;;;;;;;;;;;20.59;63.44;99445.59;10207038;28;1906;-74
2023/09/17 03:12:46;;;;;;;;;;;;;;;20.60;63.39;99441.19;10207358;28;874;-74
2023/09/17 03:17:42;;;;;;;;;;;;;;;20.60;63.29;99435.88;10208119;28;862;-74
2023/09/17 03:22:38;;;;;;;;;;;;;;;20.59;63.35;99437.66;10206740;28;942;-74
2023/09/17 03:27:34;;;;;;;;;;;;;;;20.58;63.48;99435.97;10205933;28;1956;-75
2023/09/17 03:32:30;;;;;;;;;;;;;;;20.59;63.49;99432.34;10206156;28;875;-74
2023/09/17 03:37:25;;;;;;;;;;;;;;;20.58;63.41;99446.56;10204971;28;1328;-74
2023/09/17 03:42:21;;;;;;;;;;;;;;;20.58;63.51;99454.50;10206653;28;895;-74
2023/09/17 03:47:17;;;;;;;;;;;;;;;20.58;63.55;99435.97;10205177;28;1911;-74
2023/09/17 03:52:13;;;;;;;;;;;;;;;20.56;63.26;99425.44;10206268;28;823;-74
2023/09/17 03:57:09;;;;;;;;;;;;;;;20.57;63.39;99431.63;10205494;28;866;-74
2023/09/17 04:02:05;;;;;;;;;;;;;;;20.56;63.45;99422.78;10188018;28;846;-74
2023/09/17 04:07:02;;;;;;;;;;;;;;;20.57;63.27;99421.88;10205046;28;1960;-74
2023/09/17 04:11:58;;;;;;;;;;;;;;;20.57;63.49;99423.69;10205066;28;818;-74
2023/09/17 04:16:54;;;;;;;;;;;;;;;20.56;63.35;99422.78;10205424;28;806;-74
2023/09/17 04:21:50;;;;;;;;;;;;;;;20.56;63.29;99416.66;10205713;28;762;-74
2023/09/17 04:26:46;;;;;;;;;;;;;;;20.56;63.39;99429.91;10205400;28;1963;-74
2023/09/17 04:31:42;;;;;;;;;;;;;;;20.56;63.34;99419.31;10204985;28;883;-74
2023/09/17 04:36:38;;;;;;;;;;;;;;;20.55;63.29;99415.81;10204146;28;1214;-74
2023/09/17 04:41:34;;;;;;;;;;;;;;;20.55;63.41;99417.63;10205244;28;1028;-74
2023/09/17 04:46:30;;;;;;;;;;;;;;;20.55;63.40;99429.06;10204035;28;1981;-74
2023/09/17 04:51:27;;;;;;;;;;;;;;;20.55;63.50;99425.56;10203299;28;861;-74
2023/09/17 04:56:23;;;;;;;;;;;;;;;20.55;63.47;99430.84;10203912;28;776;-74
2023/09/17 05:01:18;;;;;;;;;;;;;;;20.54;63.26;99424.72;10203322;28;1023;-74
2023/09/17 05:06:14;;;;;;;;;;;;;;;20.54;63.40;99437.94;10203802;28;1956;-74
2023/09/17 05:11:10;;;;;;;;;;;;;;;20.53;63.44;99428.25;10203582;28;775;-74
2023/09/17 05:16:06;;;;;;;;;;;;;;;20.53;63.44;99428.25;10211259;28;897;-75
2023/09/17 05:21:02;;;;;;;;;;;;;;;20.52;63.41;99423.91;10211013;28;857;-74
2023/09/17 05:25:58;;;;;;;;;;;;;;;20.53;63.44;99428.25;10211185;28;1914;-74
2023/09/17 05:30:57;;;;;;;;;;;;;;;20.52;63.46;99425.72;10211055;28;944;-74
2023/09/17 05:35:56;;;;;;;;;;;;;;;20.51;63.49;99426.63;10210838;28;870;-74
2023/09/17 05:40:52;;;;;;;;;;;;;;;20.51;63.30;99424.00;10211096;28;1287;-74
2023/09/17 05:45:49;;;;;;;;;;;;;;;20.52;63.47;99425.72;10210336;28;1977;-74
2023/09/17 05:50:46;;;;;;;;;;;;;;;20.51;63.37;99426.63;10210241;28;1000;-74
2023/09/17 05:55:42;;;;;;;;;;;;;;;20.50;63.45;99419.66;10210084;28;1056;-74
2023/09/17 06:00:38;;;;;;;;;;;;;;;20.49;63.26;99423.25;10209916;28;992;-74
2023/09/17 06:05:34;;;;;;;;;;;;;;;20.50;63.40;99420.50;10209051;28;1902;-74
2023/09/17 06:10:30;;;;;;;;;;;;;;;20.50;63.35;99424.94;10209590;28;796;-74
2023/09/17 06:15:26;;;;;;;;;;;;;;;20.49;63.28;99418.81;10209417;28;1658;-80
2023/09/17 06:20:22;;;;;;;;;;;;;;;20.46;63.37;99420.75;10209601;28;845;-78
2023/09/17 06:25:19;;;;;;;;;;;;;;;20.45;63.56;99417.28;10208429;28;1957;-77
2023/09/17 06:30:14;;;;;;;;;;;;;;;20.47;63.53;99406.59;10209689;28;878;-77
2023/09/17 06:35:10;;;;;;;;;;;;;;;20.48;63.40;99408.28;10208675;28;782;-78
2023/09/17 06:40:08;;;;;;;;;;;;;;;20.49;63.38;99407.38;10208430;28;2117;-74
2023/09/17 06:45:04;;;;;;;;;;;;;;;20.50;63.56;99403.75;10208305;28;1963;-73
2023/09/17 06:50:00;;;;;;;;;;;;;;;20.50;63.41;99406.41;10208664;28;878;-72
2023/09/17 06:54:56;;;;;;;;;;;;;;;20.49;63.37;99407.38;10208203;28;1009;-72
2023/09/17 06:59:52;;;;;;;;;;;;;;;20.49;63.65;99407.38;10208504;28;857;-77
2023/09/17 07:04:48;;;;;;;;;;;;;;;20.48;63.64;99405.66;10206555;28;1948;-78
2023/09/17 07:09:44;;;;;;;;;;;;;;;20.47;63.63;99412.75;10207913;28;848;-79
2023/09/17 07:14:41;;;;;;;;;;;;;;;20.49;63.57;99407.38;10207058;28;771;-79
2023/09/17 07:19:37;;;;;;;;;;;;;;;20.50;63.61;99404.59;10208128;28;861;-79
2023/09/17 07:24:32;;;;;;;;;;;;;;;20.52;63.78;99412.47;10205937;28;1898;-78
2023/09/17 07:29:29;;;;;;;;;;;;;;;20.53;63.87;99408.88;10206491;28;803;-84
2023/09/17 07:34:26;;;;;;;;;;;;;;;20.54;63.76;99413.25;10206385;28;849;-80
2023/09/17 07:39:22;;;;;;;;;;;;;;;20.53;64.00;99415.00;10205481;28;1297;-80
2023/09/17 07:44:18;;;;;;;;;;;;;;;20.53;63.93;99419.47;10205896;28;1910;-78
2023/09/17 07:49:14;;;;;;;;;;;;;;;20.54;63.90;99421.19;10205837;28;853;-79
2023/09/17 07:54:10;;;;;;;;;;;;;;;20.54;63.89;99423.84;10206872;28;875;-79
2023/09/17 07:59:06;;;;;;;;;;;;;;;20.53;64.02;99416.81;10203666;28;1083;-78
2023/09/17 08:04:02;;;;;;;;;;;;;;;20.54;64.06;99424.72;10205424;28;1894;-79
2023/09/17 08:08:57;;;;;;;;;;;;;;;20.54;64.13;99423.84;10205227;28;785;-78
2023/09/17 08:13:54;;;;;;;;;;;;;;;20.56;64.12;99424.59;10205040;28;936;-78
2023/09/17 08:18:50;;;;;;;;;;;;;;;20.57;63.97;99421.03;10205488;28;853;-74
2023/09/17 08:23:45;;;;;;;;;;;;;;;20.57;64.17;99423.69;10201761;28;1095;-78
2023/09/17 08:28:42;;;;;;;;;;;;;;;20.57;64.03;99421.03;10204066;28;1944;-79
2023/09/17 08:33:38;;;;;;;;;;;;;;;20.57;64.30;99428.97;10204277;28;804;-79
2023/09/17 08:38:33;;;;;;;;;;;;;;;20.58;64.17;99433.31;10228951;28;1342;-78
2023/09/17 08:43:31;;;;;;;;;;;;;;;20.56;64.13;99436.03;10238589;28;1253;-79
2023/09/17 08:48:27;;;;;;;;;;;;;;;20.56;64.03;99436.03;10243368;28;1910;-78
2023/09/17 08:53:23;;;;;;;;;;;;;;;20.58;63.96;99434.16;10243961;28;910;-75
2023/09/17 08:58:19;;;;;;;;;;;;;;;20.57;64.11;99440.41;10244483;28;891;-75
2023/09/17 09:03:15;;;;;;;;;;;;;;;20.57;64.11;99435.13;10243305;28;902;-75
2023/09/17 09:08:11;;;;;;;;;;;;;;;20.58;64.17;99433.31;10244252;28;1961;-75
2023/09/17 09:13:08;;;;;;;;;;;;;;;20.57;63.93;99435.13;10243060;28;846;-75
2023/09/17 09:18:04;;;;;;;;;;;;;;;20.58;63.99;99434.16;10244742;28;836;-73
2023/09/17 09:22:59;;;;;;;;;;;;;;;20.58;63.95;99434.16;10243606;28;841;-75
2023/09/17 09:27:55;;;;;;;;;;;;;;;20.59;64.10;99432.34;10243250;28;1894;-75
2023/09/17 09:32:51;;;;;;;;;;;;;;;20.59;64.13;99429.72;10243411;28;810;-72
2023/09/17 09:37:47;;;;;;;;;;;;;;;20.62;63.96;99428.66;10243208;28;1359;-75
2023/09/17 09:42:43;;;;;;;;;;;;;;;20.61;63.93;99434.91;10243275;28;938;-75
2023/09/17 09:47:39;;;;;;;;;;;;;;;20.61;64.08;99440.22;10243017;28;1910;-74
2023/09/17 09:52:35;;;;;;;;;;;;;;;20.62;63.95;99434.84;10242477;28;893;-75
2023/09/17 09:57:31;;;;;;;;;;;;;;;20.64;64.04;99426.78;10244184;28;798;-76
2023/09/17 10:02:27;;;;;;;;;;;;;;;20.64;64.05;99432.09;10250382;28;821;-76
2023/09/17 10:07:23;;;;;;;;;;;;;;;20.64;64.00;99442.69;10250242;28;1902;-77
2023/09/17 10:12:20;;;;;;;;;;;;;;;20.64;64.05;99432.94;10250955;28;901;-77
2023/09/17 10:17:16;;;;;;;;;;;;;;;20.66;64.03;99433.69;10249622;28;893;-78
2023/09/17 10:22:13;;;;;;;;;;;;;;;20.66;64.04;99428.41;10248657;28;1236;-78
2023/09/17 10:27:08;;;;;;;;;;;;;;;20.68;63.96;99425.69;10249779;28;1894;-79
2023/09/17 10:32:04;;;;;;;;;;;;;;;20.69;63.87;99424.72;10249136;28;962;-78
2023/09/17 10:37:00;;;;;;;;;;;;;;;20.68;63.96;99423.88;10249826;28;1440;-71
2023/09/17 10:41:56;;;;;;;;;;;;;;;20.69;63.96;99425.56;10248160;28;811;-70
2023/09/17 10:46:52;;;;;;;;;;;;;;;20.67;64.05;99416.88;10249214;28;1969;-71
2023/09/17 10:51:48;;;;;;;;;;;;;;;20.71;63.88;99421.03;10249522;28;838;-82
2023/09/17 10:56:45;;;;;;;;;;;;;;;20.67;64.06;99416.88;10248825;28;861;-84
2023/09/17 11:01:41;;;;;;;;;;;;;;;20.70;64.15;99413.19;10248571;28;913;-71
2023/09/17 11:06:37;;;;;;;;;;;;;;;20.72;63.96;99409.50;10248003;28;1894;-70
2023/09/17 11:11:33;;;;;;;;;;;;;;;20.71;63.89;99409.59;10247104;28;764;-73
2023/09/17 11:16:29;;;;;;;;;;;;;;;20.61;64.03;99411.94;10247403;28;874;-71
2023/09/17 11:21:25;;;;;;;;;;;;;;;20.61;64.23;99409.28;10247368;28;764;-71
2023/09/17 11:26:21;;;;;;;;;;;;;;;20.61;64.21;99417.22;10246988;28;1898;-71
2023/09/17 11:31:17;;;;;;;;;;;;;;;20.61;64.33;99408.44;10247681;28;834;-71
2023/09/17 11:36:13;;;;;;;;;;;;;;;20.63;64.33;99412.72;10246599;28;946;-71
2023/09/17 11:41:09;;;;;;;;;;;;;;;20.61;64.37;99411.94;10246196;28;1196;-71
2023/09/17 11:46:04;;;;;;;;;;;;;;;20.58;64.38;99409.47;10246214;28;1973;-75
2023/09/17 11:51:00;;;;;;;;;;;;;;;20.59;64.51;99408.53;10245561;28;913;-75
2023/09/17 11:55:56;;;;;;;;;;;;;;;20.61;64.50;99404.00;10246568;28;865;-75
2023/09/17 12:00:52;;;;;;;;;;;;;;;20.65;64.64;99413.47;10246141;28;1040;-75
2023/09/17 12:05:48;;;;;;;;;;;;;;;20.66;64.91;99415.16;10245488;28;1898;-75
2023/09/17 12:10:50;;;;;;;;;;;;;;;20.67;64.92;99413.34;10245456;28;884;-76
2023/09/17 12:15:48;;;;;;;;;;;;;;;20.69;64.89;99411.47;10229482;28;1149;-74
2023/09/17 12:21:01;;;;;;;;;;;;;;;20.69;65.02;99403.53;10203490;28;886;-75
2023/09/17 12:25:57;;;;;;;;;;;;;;;20.67;65.21;99401.00;10203451;28;1890;-75
2023/09/17 12:30:53;;;;;;;;;;;;;;;20.69;65.00;99409.69;10204168;28;830;-76
2023/09/17 12:35:50;;;;;;;;;;;;;;;20.70;65.13;99394.66;10204449;28;984;-75
2023/09/17 12:40:45;;;;;;;;;;;;;;;20.70;65.19;99390.22;10203867;28;1304;-75
2023/09/17 12:45:41;;;;;;;;;;;;;;;20.73;65.12;99413.84;10203557;28;1931;-74
2023/09/17 12:50:42;;;;;;;;;;;;;;;20.72;65.36;99390.09;10203662;28;974;-75
2023/09/17 12:55:38;;;;;;;;;;;;;;;20.73;65.23;99391.81;10203789;28;825;-74
2023/09/17 13:00:34;;;;;;;;;;;;;;;20.75;65.31;99390.78;10203983;28;897;-74
2023/09/17 13:05:30;;;;;;;;;;;;;;;20.75;65.19;99397.84;10203203;28;1898;-78
2023/09/17 13:10:26;;;;;;;;;;;;;;;20.73;65.23;99384.72;10203098;28;921;-78
2023/09/17 13:15:21;;;;;;;;;;;;;;;20.72;65.09;99393.63;10203790;28;875;-79
2023/09/17 13:20:18;;;;;;;;;;;;;;;20.71;64.84;99391.91;10203001;28;863;-78
2023/09/17 13:25:14;;;;;;;;;;;;;;;20.72;64.99;99385.69;10202936;28;1886;-78
2023/09/17 13:30:10;;;;;;;;;;;;;;;20.73;64.67;99389.16;10202131;28;876;-78
2023/09/17 13:35:09;;;;;;;;;;;;;;;20.72;64.75;99388.31;10207218;28;878;-77
2023/09/17 13:40:05;;;;;;;;;;;;;;;20.73;64.73;99390.00;10209958;28;1407;-73
2023/09/17 13:45:00;;;;;;;;;;;;;;;20.74;64.66;99385.56;10210034;28;1910;-75
2023/09/17 13:49:58;;;;;;;;;;;;;;;20.74;64.40;99381.09;10209900;28;810;-84
2023/09/17 13:54:54;;;;;;;;;;;;;;;20.75;64.67;99366.94;10210045;28;771;-71
2023/09/17 13:59:52;;;;;;;;;;;;;;;20.78;64.43;99366.75;10210060;28;836;-71
2023/09/17 14:04:48;;;;;;;;;;;;;;;20.79;64.36;99363.13;10210202;28;1894;-70
2023/09/17 14:09:44;;;;;;;;;;;;;;;20.81;64.68;99360.41;10210006;28;833;-77
2023/09/17 14:14:39;;;;;;;;;;;;;;;20.82;64.64;99367.41;10208261;28;1035;-76
2023/09/17 14:19:35;;;;;;;;;;;;;;;20.82;64.52;99353.31;10208736;28;884;-76
2023/09/17 14:24:31;;;;;;;;;;;;;;;20.82;64.38;99345.38;10209429;28;1890;-72
2023/09/17 14:29:27;;;;;;;;;;;;;;;20.82;64.33;99345.38;10208275;28;947;-81
2023/09/17 14:34:23;;;;;;;;;;;;;;;20.83;64.40;99352.34;10207913;28;839;-78
2023/09/17 14:39:19;;;;;;;;;;;;;;;20.83;64.13;99355.88;10208548;28;1170;-73
2023/09/17 14:44:15;;;;;;;;;;;;;;;20.84;64.08;99360.22;10206920;28;1906;-73
2023/09/17 14:49:11;;;;;;;;;;;;;;;20.85;64.15;99363.72;10207485;28;838;-74
2023/09/17 14:54:08;;;;;;;;;;;;;;;20.86;64.06;99354.84;10207930;28;791;-74
2023/09/17 14:59:03;;;;;;;;;;;;;;;20.87;63.93;99349.41;10207761;28;889;-78
2023/09/17 15:04:00;;;;;;;;;;;;;;;20.88;64.05;99343.19;10206827;28;1034;-78
2023/09/17 15:08:56;;;;;;;;;;;;;;;20.88;64.35;99332.59;10206657;28;1938;-71
2023/09/17 15:13:52;;;;;;;;;;;;;;;20.91;64.46;99334.22;10207068;28;880;-72
2023/09/17 15:18:48;;;;;;;;;;;;;;;20.92;63.96;99335.91;10206065;28;797;-72
2023/09/17 15:23:44;;;;;;;;;;;;;;;20.92;64.09;99333.25;10206624;28;945;-73
2023/09/17 15:28:43;;;;;;;;;;;;;;;20.93;64.20;99333.16;10206066;28;1898;-71
2023/09/17 15:33:39;;;;;;;;;;;;;;;20.94;64.17;99328.72;10206349;28;908;-73
2023/09/17 15:38:34;;;;;;;;;;;;;;;20.94;64.07;99329.56;10205671;28;1306;-71
2023/09/17 15:43:30;;;;;;;;;;;;;;;20.94;64.29;99329.56;10205987;28;747;-72
2023/09/17 15:48:26;;;;;;;;;;;;;;;20.95;63.96;99339.19;10205016;28;1922;-72
2023/09/17 15:53:22;;;;;;;;;;;;;;;20.96;64.21;99334.75;10207185;28;897;-72
2023/09/17 15:58:18;;;;;;;;;;;;;;;20.96;64.37;99332.13;10187957;28;910;-73
2023/09/17 16:03:14;;;;;;;;;;;;;;;20.96;64.24;99335.63;10205455;28;883;-75
2023/09/17 16:08:10;;;;;;;;;;;;;;;20.97;64.14;99350.56;10205853;28;1906;-73
2023/09/17 16:13:06;;;;;;;;;;;;;;;20.98;64.57;99346.09;10205109;28;950;-70
2023/09/17 16:18:02;;;;;;;;;;;;;;;20.98;64.52;99354.88;10205560;28;854;-73
2023/09/17 16:22:58;;;;;;;;;;;;;;;20.97;64.55;99339.09;10204161;28;1123;-72
2023/09/17 16:27:54;;;;;;;;;;;;;;;20.97;64.52;99324.06;10204598;28;1949;-73
2023/09/17 16:32:50;;;;;;;;;;;;;;;20.99;64.32;99324.81;10204321;28;947;-78
2023/09/17 16:37:46;;;;;;;;;;;;;;;21.01;63.96;99325.56;10204333;28;1078;-76
2023/09/17 16:42:42;;;;;;;;;;;;;;;21.00;64.48;99323.84;10204226;28;800;-73
2023/09/17 16:47:37;;;;;;;;;;;;;;;21.00;64.37;99310.59;10204148;28;1918;-70
2023/09/17 16:52:33;;;;;;;;;;;;;;;20.99;64.58;99316.88;10204422;28;903;-78
2023/09/17 16:57:29;;;;;;;;;;;;;;;21.00;64.36;99307.13;10203918;28;826;-76
2023/09/17 17:02:25;;;;;;;;;;;;;;;21.00;64.33;99304.47;10203776;28;1043;-76
2023/09/17 17:07:21;;;;;;;;;;;;;;;21.01;64.35;99306.16;10203681;28;1899;-76
2023/09/17 17:12:17;;;;;;;;;;;;;;;21.01;64.31;99308.81;10211948;28;837;-76
2023/09/17 17:17:13;;;;;;;;;;;;;;;21.01;64.29;99308.81;10211065;28;874;-76
2023/09/17 17:22:09;;;;;;;;;;;;;;;21.01;64.31;99314.09;10212918;28;899;-76
2023/09/17 17:27:05;;;;;;;;;;;;;;;21.02;64.34;99315.81;10211448;28;1894;-78
2023/09/17 17:32:01;;;;;;;;;;;;;;;21.02;64.34;99321.13;10210625;28;877;-76
2023/09/17 17:36:59;;;;;;;;;;;;;;;21.03;64.30;99306.91;10210647;28;1259;-89
2023/09/17 17:41:55;;;;;;;;;;;;;;;21.02;64.20;99316.66;10210768;28;904;-76
2023/09/17 17:46:51;;;;;;;;;;;;;;;21.04;64.26;99311.28;10210880;28;1910;-76
2023/09/17 17:51:47;;;;;;;;;;;;;;;21.03;64.16;99298.97;10211036;28;913;-76
2023/09/17 17:56:43;;;;;;;;;;;;;;;21.04;64.30;99295.38;10210812;28;824;-76
2023/09/17 18:01:39;;;;;;;;;;;;;;;21.05;64.42;99293.56;10210668;28;852;-74
2023/09/17 18:06:35;;;;;;;;;;;;;;;21.06;64.30;99304.06;10209780;28;1953;-71
2023/09/17 18:11:31;;;;;;;;;;;;;;;21.07;64.26;99297.84;10209830;28;1219;-71
2023/09/17 18:16:27;;;;;;;;;;;;;;;21.08;64.29;99302.16;10210143;28;818;-71
2023/09/17 18:21:23;;;;;;;;;;;;;;;21.08;64.26;99288.06;10208177;28;964;-71
2023/09/17 18:26:19;;;;;;;;;;;;;;;21.10;64.31;99292.34;10209110;28;1949;-73
2023/09/17 18:31:14;;;;;;;;;;;;;;;21.11;64.37;99285.22;10206801;28;1055;-72
2023/09/17 18:36:12;;;;;;;;;;;;;;;21.12;64.21;99279.00;10208499;28;808;-73
2023/09/17 18:41:07;;;;;;;;;;;;;;;21.11;64.21;99278.13;10208791;28;1431;-73
2023/09/17 18:46:03;;;;;;;;;;;;;;;21.12;64.22;99290.44;10208359;28;1965;-73
2023/09/17 18:50:59;;;;;;;;;;;;;;;21.13;64.25;99286.81;10207643;28;979;-73
2023/09/17 18:55:55;;;;;;;;;;;;;;;21.15;64.23;99278.78;10208020;28;976;-73
2023/09/17 19:00:51;;;;;;;;;;;;;;;21.15;64.30;99270.84;10207411;28;798;-72
2023/09/17 19:05:47;;;;;;;;;;;;;;;21.15;64.32;99269.03;10208094;28;1902;-72
2023/09/17 19:10:43;;;;;;;;;;;;;;;21.15;63.99;99263.72;10206450;28;1020;-72
2023/09/17 19:15:43;;;;;;;;;;;;;;;21.16;63.92;99259.28;10207862;28;885;-73
2023/09/17 19:20:39;;;;;;;;;;;;;;;21.18;63.95;99266.19;10207136;28;816;-71
2023/09/17 19:25:35;;;;;;;;;;;;;;;21.18;64.08;99257.38;10206278;28;1898;-79
2023/09/17 19:30:31;;;;;;;;;;;;;;;21.18;64.22;99252.94;10206256;28;870;-79
2023/09/17 19:35:28;;;;;;;;;;;;;;;21.18;64.22;99244.13;10207228;28;905;-80
2023/09/17 19:40:24;;;;;;;;;;;;;;;21.19;64.03;99241.38;10206105;28;1134;-78
2023/09/17 19:45:20;;;;;;;;;;;;;;;21.19;64.16;99246.66;10206264;28;1911;-79
2023/09/17 19:50:16;;;;;;;;;;;;;;;21.19;64.30;99240.50;10206120;28;860;-79
2023/09/17 19:55:12;;;;;;;;;;;;;;;21.19;64.10;99232.56;10205786;28;912;-79
2023/09/17 20:00:08;;;;;;;;;;;;;;;21.19;64.12;99227.25;10206437;28;885;-80
2023/09/17 20:05:04;;;;;;;;;;;;;;;21.20;64.33;99223.69;10206168;28;2013;-79
2023/09/17 20:10:00;;;;;;;;;;;;;;;21.20;64.29;99202.47;10204804;28;923;-79
2023/09/17 20:14:56;;;;;;;;;;;;;;;21.20;64.27;99190.06;10204560;28;1166;-80
2023/09/17 20:19:55;;;;;;;;;;;;;;;21.21;64.35;99177.66;10204453;28;751;-79
2023/09/17 20:24:50;;;;;;;;;;;;;;;21.21;64.34;99175.84;10204678;28;1890;-80
2023/09/17 20:29:46;;;;;;;;;;;;;;;21.20;64.36;99174.16;10204270;28;1125;-79
2023/09/17 20:34:42;;;;;;;;;;;;;;;21.21;64.24;99173.22;10205065;28;864;-79
2023/09/17 20:39:38;;;;;;;;;;;;;;;21.22;64.35;99174.03;10203497;28;1437;-78
2023/09/17 20:44:36;;;;;;;;;;;;;;;21.21;64.32;99175.00;10203598;28;1969;-79
2023/09/17 20:49:32;;;;;;;;;;;;;;;21.22;64.37;99168.75;10203839;28;915;-80
2023/09/17 20:54:28;;;;;;;;;;;;;;;21.23;64.29;99165.16;10204228;28;976;-79
2023/09/17 20:59:24;;;;;;;;;;;;;;;21.23;64.36;99154.56;10203097;28;885;-79
2023/09/17 21:04:19;;;;;;;;;;;;;;;21.22;64.40;99153.72;10204085;28;1894;-78
2023/09/17 21:09:15;;;;;;;;;;;;;;;21.23;64.26;99160.72;10203981;28;779;-77
2023/09/17 21:14:12;;;;;;;;;;;;;;;21.24;64.26;99162.41;10204463;28;804;-77
2023/09/17 21:19:08;;;;;;;;;;;;;;;21.24;64.24;99151.78;10204133;28;871;-77
2023/09/17 21:24:04;;;;;;;;;;;;;;;21.24;64.05;99153.59;10203964;28;775;-82
2023/09/17 21:28:59;;;;;;;;;;;;;;;21.23;64.29;99136.00;10203939;28;1894;-77
2023/09/17 21:33:55;;;;;;;;;;;;;;;21.25;64.19;99144.72;10203880;28;910;-77
2023/09/17 21:38:51;;;;;;;;;;;;;;;21.27;64.23;99149.91;10202807;28;1137;-78
2023/09/17 21:43:48;;;;;;;;;;;;;;;21.24;64.22;99143.84;10203092;28;1106;-73
2023/09/17 21:48:44;;;;;;;;;;;;;;;21.24;64.11;99138.53;10203529;28;1961;-73
2023/09/17 21:53:40;;;;;;;;;;;;;;;21.24;64.17;99143.00;10203790;28;767;-72
2023/09/17 21:58:36;;;;;;;;;;;;;;;21.28;63.96;99141.00;10209467;28;952;-75
2023/09/17 22:03:32;;;;;;;;;;;;;;;21.32;63.84;99137.19;10210730;28;976;-75
2023/09/17 22:08:28;;;;;;;;;;;;;;;21.33;63.90;99130.94;10210457;28;1959;-75
2023/09/17 22:13:24;;;;;;;;;;;;;;;21.34;63.69;99129.97;10209655;28;957;-74
2023/09/17 22:18:20;;;;;;;;;;;;;;;21.35;63.84;99137.84;10208862;28;881;-74
2023/09/17 22:23:16;;;;;;;;;;;;;;;21.35;63.62;99129.00;10209314;28;794;-74
2023/09/17 22:28:13;;;;;;;;;;;;;;;21.36;63.49;99112.19;10209657;28;1963;-74
2023/09/17 22:33:09;;;;;;;;;;;;;;;21.35;63.43;99102.50;10209108;28;990;-75
2023/09/17 22:38:04;;;;;;;;;;;;;;;21.37;63.51;99105.91;10209367;28;1309;-74
2023/09/17 22:43:00;;;;;;;;;;;;;;;21.37;63.43;99111.22;10209397;28;800;-74
2023/09/17 22:47:56;;;;;;;;;;;;;;;21.38;63.59;99100.53;10208423;28;1911;-79
2023/09/17 22:52:52;;;;;;;;;;;;;;;21.39;63.52;99082.81;10208835;28;834;-73
2023/09/17 22:57:48;;;;;;;;;;;;;;;21.37;63.41;99069.63;10207987;28;939;-73
2023/09/17 23:02:44;;;;;;;;;;;;;;;21.38;63.38;99051.97;10208649;28;774;-73
2023/09/17 23:07:40;;;;;;;;;;;;;;;21.38;63.45;99046.69;10207440;28;1894;-73
2023/09/17 23:12:36;;;;;;;;;;;;;;;21.39;63.23;99051.00;10208090;28;965;-73
2023/09/17 23:17:32;;;;;;;;;;;;;;;21.38;63.42;99034.28;10207344;28;1139;-73
2023/09/17 23:22:28;;;;;;;;;;;;;;;21.39;63.24;99019.19;10207792;28;860;-73
2023/09/17 23:27:24;;;;;;;;;;;;;;;21.37;63.46;99019.25;10206792;28;1894;-73
2023/09/17 23:32:23;;;;;;;;;;;;;;;21.39;63.44;99005.94;10206739;28;816;-73
2023/09/17 23:37:19;;;;;;;;;;;;;;;21.38;63.37;99001.63;10206472;28;1331;-73
2023/09/17 23:42:15;;;;;;;;;;;;;;;21.38;63.31;98988.34;10206376;28;787;-73
2023/09/17 23:47:11;;;;;;;;;;;;;;;21.38;63.23;98978.59;10206049;28;1918;-73
2023/09/17 23:52:07;;;;;;;;;;;;;;;21.38;63.40;98975.94;10206531;28;859;-73
2023/09/17 23:57:03;;;;;;;;;;;;;;;21.38;63.30;98961.84;10206404;28;795;-73
